createdAt,value
2019-04-14T00:01:21.634Z,4.80
2019-04-14T00:06:18.000Z,4.83
2019-04-14T00:08:45.884Z,4.70
2019-04-14T00:11:12.613Z,4.43
2019-04-14T00:13:39.299Z,4.90
2019-04-14T00:16:05.958Z,4.60
2019-04-14T00:18:33.667Z,4.63
2019-04-14T00:21:00.455Z,3.80
2019-04-14T00:23:28.209Z,4.43
2019-04-14T00:26:16.221Z,4.23
2019-04-14T00:28:42.892Z,4.23
2019-04-14T00:31:09.438Z,4.37
2019-04-14T00:33:36.685Z,4.20
2019-04-14T00:38:54.354Z,4.00
2019-04-14T00:41:46.715Z,4.20
2019-04-14T00:44:10.002Z,4.13
2019-04-14T00:46:45.285Z,4.05
2019-04-14T00:49:12.068Z,4.30
2019-04-14T00:51:40.602Z,4.10
2019-04-14T00:54:06.874Z,4.00
2019-04-14T00:56:34.356Z,4.10
2019-04-14T00:59:01.214Z,4.53
2019-04-14T01:01:28.601Z,4.00
2019-04-14T01:03:55.394Z,4.47
2019-04-14T01:06:22.962Z,4.50
2019-04-14T01:08:50.998Z,4.23
2019-04-14T01:11:18.184Z,4.13
2019-04-14T01:13:46.157Z,4.20
2019-04-14T01:16:17.420Z,3.77
2019-04-14T01:18:42.888Z,5.30
2019-04-14T01:21:11.035Z,4.30
2019-04-14T01:23:39.076Z,5.07
2019-04-14T01:26:07.115Z,4.77
2019-04-14T01:28:35.356Z,5.00
2019-04-14T01:31:03.237Z,5.30
2019-04-14T01:33:31.488Z,4.90
2019-04-14T01:35:59.502Z,5.17
2019-04-14T01:38:27.537Z,4.73
2019-04-14T01:40:55.280Z,5.27
2019-04-14T01:43:23.442Z,5.13
2019-04-14T01:46:03.992Z,4.73
2019-04-14T01:48:19.222Z,5.40
2019-04-14T01:51:04.887Z,4.97
2019-04-14T01:53:51.011Z,4.70
2019-04-14T01:56:29.528Z,5.70
2019-04-14T01:58:57.940Z,5.53
2019-04-14T02:04:18.548Z,4.87
2019-04-14T02:06:46.202Z,4.90
2019-04-14T02:09:13.995Z,4.90
2019-04-14T02:11:40.634Z,4.33
2019-04-14T02:14:08.255Z,4.30
2019-04-14T02:16:41.989Z,4.27
2019-04-14T02:19:04.504Z,4.10
2019-04-14T02:21:32.318Z,4.37
2019-04-14T02:24:00.445Z,3.93
2019-04-14T02:26:28.564Z,3.70
2019-04-14T02:28:55.394Z,4.23
2019-04-14T02:31:46.887Z,4.30
2019-04-14T02:36:47.997Z,4.47
2019-04-14T02:39:13.553Z,4.70
2019-04-14T02:41:47.093Z,4.80
2019-04-14T02:49:04.536Z,4.60
2019-04-14T02:51:35.014Z,4.43
2019-04-14T02:54:07.452Z,4.50
2019-04-14T02:56:32.587Z,4.27
2019-04-14T02:58:59.909Z,4.47
2019-04-14T03:03:56.339Z,4.93
2019-04-14T03:06:29.201Z,4.00
2019-04-14T03:08:59.066Z,5.50
2019-04-14T03:11:25.350Z,4.93
2019-04-14T03:13:51.101Z,5.83
2019-04-14T03:16:27.208Z,5.23
2019-04-14T03:18:50.091Z,5.15
2019-04-14T03:21:38.074Z,5.23
2019-04-14T03:24:10.938Z,4.97
2019-04-14T03:26:44.993Z,4.83
2019-04-14T03:29:20.899Z,4.93
2019-04-14T03:39:15.454Z,4.77
2019-04-14T03:44:10.144Z,6.43
2019-04-14T03:46:43.321Z,5.83
2019-04-14T03:49:26.544Z,7.00
2019-04-14T03:51:55.829Z,7.60
2019-04-14T03:53:58.748Z,8.60
2019-04-14T03:56:29.186Z,8.67
2019-04-14T03:58:55.759Z,7.33
2019-04-14T04:01:23.646Z,5.60
2019-04-14T04:03:50.340Z,6.37
2019-04-14T04:06:18.085Z,5.07
2019-04-14T04:08:45.072Z,5.47
2019-04-14T04:11:13.032Z,5.43
2019-04-14T04:13:39.549Z,6.13
2019-04-14T04:16:16.614Z,5.23
2019-04-14T04:18:50.984Z,4.93
2019-04-14T04:21:23.102Z,5.03
2019-04-14T04:26:32.171Z,5.20
2019-04-14T04:31:37.678Z,4.70
2019-04-14T04:34:29.417Z,4.63
2019-04-14T04:37:06.791Z,4.43
2019-04-14T04:39:36.497Z,4.70
2019-04-14T04:42:04.730Z,9.37
2019-04-14T04:44:31.721Z,4.93
2019-04-14T04:46:59.135Z,4.43
2019-04-14T04:49:28.176Z,4.50
2019-04-14T04:51:55.125Z,4.57
2019-04-14T04:54:21.797Z,4.87
2019-04-14T04:56:49.182Z,4.87
2019-04-14T04:59:16.999Z,4.07
2019-04-14T05:01:45.061Z,4.40
2019-04-14T05:04:11.920Z,4.37
2019-04-14T05:06:55.036Z,4.60
2019-04-14T05:12:32.623Z,4.90
2019-04-14T05:15:01.282Z,4.87
2019-04-14T05:17:29.918Z,4.77
2019-04-14T05:19:56.438Z,4.42
2019-04-14T05:22:24.621Z,5.67
2019-04-14T05:24:52.795Z,11.27
2019-04-14T05:27:20.979Z,11.63
2019-04-14T05:29:47.545Z,6.20
2019-04-14T05:32:15.207Z,5.43
2019-04-14T05:34:41.803Z,5.40
2019-04-14T05:37:09.257Z,36.43
2019-04-14T05:39:36.009Z,5.10
2019-04-14T05:42:08.618Z,5.43
2019-04-14T05:44:31.891Z,5.00
2019-04-14T05:46:59.975Z,5.03
2019-04-14T05:49:34.016Z,5.37
2019-04-14T05:51:54.918Z,6.00
2019-04-14T05:54:21.533Z,4.67
2019-04-14T05:56:47.984Z,5.60
2019-04-14T05:59:15.549Z,4.97
2019-04-14T06:01:42.488Z,5.00
2019-04-14T06:04:09.339Z,4.53
2019-04-14T06:06:36.197Z,5.10
2019-04-14T06:09:04.570Z,4.87
2019-04-14T06:11:31.155Z,5.80
2019-04-14T06:13:57.713Z,5.47
2019-04-14T06:16:44.131Z,5.23
2019-04-14T06:19:10.699Z,5.37
2019-04-14T06:21:37.299Z,5.00
2019-04-14T06:24:03.755Z,4.70
2019-04-14T06:26:33.650Z,4.50
2019-04-14T06:29:00.305Z,4.07
2019-04-14T06:31:34.829Z,4.27
2019-04-14T06:34:03.294Z,4.50
2019-04-14T06:36:46.588Z,5.03
2019-04-14T06:39:15.178Z,3.90
2019-04-14T06:41:42.015Z,4.27
2019-04-14T06:44:08.857Z,4.43
2019-04-14T06:46:35.754Z,5.70
2019-04-14T06:49:02.550Z,3.97
2019-04-14T06:51:29.405Z,4.20
2019-04-14T06:53:56.256Z,3.43
2019-04-14T06:56:22.982Z,4.03
2019-04-14T06:58:49.537Z,4.23
2019-04-14T07:01:16.168Z,13.30
2019-04-14T07:03:42.818Z,7.87
2019-04-14T07:06:09.514Z,4.50
2019-04-14T07:08:36.223Z,3.90
2019-04-14T07:11:03.074Z,4.20
2019-04-14T07:13:29.670Z,4.50
2019-04-14T07:15:56.286Z,4.10
2019-04-14T07:18:22.882Z,4.67
2019-04-14T07:20:49.383Z,5.55
2019-04-14T07:23:16.017Z,15.08
2019-04-14T07:25:42.623Z,25.43
2019-04-14T07:28:09.322Z,10.05
2019-04-14T07:30:49.441Z,6.60
2019-04-14T07:33:37.594Z,5.42
2019-04-14T07:36:11.582Z,5.00
2019-04-14T07:41:25.155Z,4.12
2019-04-14T07:44:11.524Z,4.35
2019-04-14T07:46:52.134Z,4.72
2019-04-14T07:49:20.577Z,4.45
2019-04-14T07:51:51.803Z,4.17
2019-04-14T07:54:36.770Z,3.65
2019-04-14T07:57:21.623Z,3.92
2019-04-14T08:00:10.204Z,7.03
2019-04-14T08:02:41.484Z,4.27
2019-04-14T08:05:30.626Z,4.33
2019-04-14T08:07:57.142Z,4.05
2019-04-14T08:10:23.760Z,4.40
2019-04-14T08:12:50.438Z,4.17
2019-04-14T08:15:16.995Z,3.55
2019-04-14T08:17:43.758Z,3.60
2019-04-14T08:20:10.341Z,3.60
2019-04-14T08:22:37.029Z,3.20
2019-04-14T08:25:04.583Z,3.05
2019-04-14T08:27:31.297Z,3.37
2019-04-14T08:29:57.865Z,3.70
2019-04-14T08:32:24.661Z,3.50
2019-04-14T08:34:51.507Z,2.60
2019-04-14T08:37:18.133Z,2.27
2019-04-14T08:39:45.188Z,2.27
2019-04-14T08:42:28.927Z,2.35
2019-04-14T08:44:57.210Z,2.27
2019-04-14T08:47:25.520Z,2.50
2019-04-14T08:50:05.956Z,2.90
2019-04-14T08:52:37.496Z,2.55
2019-04-14T08:59:02.573Z,2.90
2019-04-14T09:01:31.047Z,2.80
2019-04-14T09:04:05.182Z,3.00
2019-04-14T09:06:45.594Z,2.35
2019-04-14T09:09:14.076Z,2.70
2019-04-14T09:11:54.561Z,2.37
2019-04-14T09:14:21.143Z,1.92
2019-04-14T09:17:09.688Z,2.33
2019-04-14T09:19:36.307Z,2.12
2019-04-14T09:22:02.958Z,2.33
2019-04-14T09:24:29.618Z,2.62
2019-04-14T09:26:56.369Z,2.95
2019-04-14T09:29:23.008Z,2.30
2019-04-14T09:31:49.678Z,2.25
2019-04-14T09:34:16.262Z,2.50
2019-04-14T09:36:42.730Z,2.67
2019-04-14T09:39:09.414Z,2.40
2019-04-14T09:41:35.885Z,2.37
2019-04-14T09:44:02.542Z,2.37
2019-04-14T09:46:29.234Z,2.58
2019-04-14T09:48:55.672Z,3.75
2019-04-14T09:51:22.238Z,4.20
2019-04-14T09:53:48.904Z,2.60
2019-04-14T09:56:15.444Z,2.30
2019-04-14T09:58:41.878Z,2.55
2019-04-14T10:01:09.175Z,2.70
2019-04-14T10:03:36.861Z,2.35
2019-04-14T10:06:03.534Z,2.65
2019-04-14T10:08:30.190Z,6.10
2019-04-14T10:10:56.752Z,5.05
2019-04-14T10:13:23.360Z,3.87
2019-04-14T10:15:49.926Z,4.90
2019-04-14T10:18:17.861Z,4.15
2019-04-14T10:20:44.667Z,4.35
2019-04-14T10:23:11.115Z,5.40
2019-04-14T10:25:37.674Z,3.02
2019-04-14T10:28:05.288Z,3.70
2019-04-14T10:30:31.861Z,5.42
2019-04-14T10:32:58.361Z,5.97
2019-04-14T10:35:24.950Z,5.78
2019-04-14T10:37:51.531Z,5.35
2019-04-14T10:40:18.150Z,6.55
2019-04-14T10:42:44.683Z,5.05
2019-04-14T10:45:11.255Z,4.85
2019-04-14T10:47:38.020Z,3.83
2019-04-14T10:50:04.691Z,4.35
2019-04-14T10:52:31.392Z,6.50
2019-04-14T10:54:57.873Z,5.72
2019-04-14T10:57:24.575Z,3.47
2019-04-14T10:59:51.038Z,3.15
2019-04-14T11:02:17.594Z,3.08
2019-04-14T11:04:44.155Z,3.45
2019-04-14T11:07:12.426Z,2.40
2019-04-14T11:09:39.093Z,3.95
2019-04-14T11:12:05.924Z,3.30
2019-04-14T11:14:32.699Z,3.70
2019-04-14T11:16:59.205Z,2.98
2019-04-14T11:19:25.971Z,3.58
2019-04-14T11:21:54.275Z,3.17
2019-04-14T11:24:21.016Z,3.60
2019-04-14T11:26:47.571Z,4.03
2019-04-14T11:29:14.246Z,3.08
2019-04-14T11:31:54.519Z,3.10
2019-04-14T11:37:03.826Z,3.15
2019-04-14T11:39:30.520Z,3.25
2019-04-14T11:41:57.116Z,3.95
2019-04-14T11:44:23.838Z,2.67
2019-04-14T11:46:50.298Z,2.75
2019-04-14T11:49:16.869Z,3.10
2019-04-14T11:51:54.608Z,2.90
2019-04-14T11:54:12.439Z,3.47
2019-04-14T11:56:39.057Z,3.60
2019-04-14T11:59:05.611Z,3.30
2019-04-14T12:01:50.326Z,3.10
2019-04-14T12:04:27.324Z,2.58
2019-04-14T12:12:10.682Z,2.60
2019-04-14T12:14:38.170Z,3.40
2019-04-14T12:17:04.847Z,3.30
2019-04-14T12:19:31.423Z,2.90
2019-04-14T12:22:07.735Z,3.58
2019-04-14T12:24:31.346Z,3.85
2019-04-14T12:26:57.936Z,4.17
2019-04-14T12:29:24.605Z,4.92
2019-04-14T12:31:51.209Z,3.10
2019-04-14T12:34:18.532Z,3.10
2019-04-14T12:36:45.266Z,2.85
2019-04-14T12:39:22.825Z,2.80
2019-04-14T12:41:51.203Z,2.72
2019-04-14T12:47:40.092Z,3.35
2019-04-14T12:50:06.799Z,2.35
2019-04-14T12:52:33.376Z,2.47
2019-04-14T12:55:00.341Z,2.35
2019-04-14T12:57:30.318Z,2.55
2019-04-14T12:59:56.984Z,2.90
2019-04-14T13:02:25.442Z,2.58
2019-04-14T13:04:52.160Z,3.12
2019-04-14T13:07:18.745Z,3.55
2019-04-14T13:09:45.306Z,3.60
2019-04-14T13:12:12.008Z,2.20
2019-04-14T13:14:38.429Z,2.85
2019-04-14T13:17:05.095Z,3.05
2019-04-14T13:19:31.560Z,3.27
2019-04-14T13:21:58.018Z,3.00
2019-04-14T13:24:24.620Z,2.62
2019-04-14T13:26:54.703Z,3.50
2019-04-14T13:29:21.331Z,3.87
2019-04-14T13:31:47.949Z,2.60
2019-04-14T13:34:14.522Z,3.27
2019-04-14T13:36:41.218Z,5.05
2019-04-14T13:39:07.811Z,4.08
2019-04-14T13:41:35.656Z,2.80
2019-04-14T13:44:02.199Z,2.47
2019-04-14T13:46:28.858Z,4.47
2019-04-14T13:48:57.346Z,2.65
2019-04-14T13:51:23.903Z,2.92
2019-04-14T13:53:50.595Z,2.70
2019-04-14T13:56:17.190Z,4.72
2019-04-14T13:58:43.790Z,5.35
2019-04-14T14:01:12.440Z,5.12
2019-04-14T14:03:38.964Z,7.43
2019-04-14T14:06:05.391Z,6.33
2019-04-14T14:08:31.917Z,9.18
2019-04-14T14:11:00.386Z,5.28
2019-04-14T14:13:34.419Z,3.40
2019-04-14T14:16:19.447Z,2.70
2019-04-14T14:18:47.862Z,4.03
2019-04-14T14:21:24.887Z,5.42
2019-04-14T14:23:53.403Z,6.75
2019-04-14T14:29:22.113Z,3.15
2019-04-14T14:31:48.672Z,4.80
2019-04-14T14:34:15.280Z,11.03
2019-04-14T14:36:41.735Z,12.30
2019-04-14T14:39:09.814Z,13.25
2019-04-14T14:41:36.378Z,13.70
2019-04-14T14:44:02.858Z,14.10
2019-04-14T14:46:39.867Z,14.20
2019-04-14T14:52:14.008Z,14.13
2019-04-14T14:54:40.563Z,16.50
2019-04-14T14:57:07.055Z,15.78
2019-04-14T14:59:33.742Z,18.10
2019-04-14T15:02:00.354Z,11.43
2019-04-14T15:04:26.899Z,13.48
2019-04-14T15:06:53.477Z,13.13
2019-04-14T15:09:20.181Z,11.20
2019-04-14T15:11:46.763Z,13.53
2019-04-14T15:14:13.341Z,13.08
2019-04-14T15:16:40.013Z,15.00
2019-04-14T15:19:06.585Z,21.75
2019-04-14T15:21:33.312Z,20.48
2019-04-14T15:23:59.791Z,24.90
2019-04-14T15:26:26.447Z,22.73
2019-04-14T15:28:53.062Z,26.12
2019-04-14T15:31:20.813Z,23.32
2019-04-14T15:33:47.621Z,24.50
2019-04-14T15:36:34.075Z,21.65
2019-04-14T15:39:00.634Z,29.60
2019-04-14T15:41:27.292Z,22.80
2019-04-14T15:43:53.879Z,23.10
2019-04-14T15:46:20.483Z,17.90
2019-04-14T15:48:47.042Z,19.45
2019-04-14T15:51:13.590Z,26.25
2019-04-14T15:53:40.046Z,17.37
2019-04-14T15:56:07.719Z,21.07
2019-04-14T16:01:44.049Z,18.82
2019-04-14T16:07:32.278Z,17.07
2019-04-14T16:10:09.785Z,16.70
2019-04-14T16:12:55.005Z,18.85
2019-04-14T16:20:58.557Z,20.57
2019-04-14T16:23:25.115Z,23.50
2019-04-14T16:25:53.502Z,24.00
2019-04-14T16:28:21.871Z,22.42
2019-04-14T16:34:01.533Z,26.42
2019-04-14T16:36:28.293Z,29.77
2019-04-14T16:38:54.997Z,26.77
2019-04-14T16:41:21.500Z,27.35
2019-04-14T16:43:48.085Z,25.35
2019-04-14T16:46:14.742Z,27.30
2019-04-14T16:48:41.439Z,26.07
2019-04-14T16:51:09.865Z,25.82
2019-04-14T16:53:38.393Z,26.87
2019-04-14T16:56:15.825Z,29.60
2019-04-14T16:58:44.214Z,35.65
2019-04-14T17:01:13.015Z,36.95
2019-04-14T17:03:39.666Z,48.52
2019-04-14T17:06:06.130Z,41.88
2019-04-14T17:08:32.656Z,27.35
2019-04-14T17:10:59.365Z,25.20
2019-04-14T17:13:27.773Z,25.50
2019-04-14T17:18:55.868Z,25.60
2019-04-14T17:21:33.689Z,26.73
2019-04-14T17:24:16.033Z,24.92
2019-04-14T17:26:51.395Z,23.67
2019-04-14T17:29:34.952Z,18.77
2019-04-14T17:32:21.601Z,19.37
2019-04-14T17:35:16.201Z,27.48
2019-04-14T17:37:53.467Z,31.73
2019-04-14T17:43:23.425Z,33.88
2019-04-14T17:46:05.124Z,31.77
2019-04-14T17:48:50.925Z,27.67
2019-04-14T17:51:47.793Z,20.82
2019-04-14T17:54:28.606Z,18.87
2019-04-14T17:56:49.702Z,18.98
2019-04-14T17:59:18.246Z,19.95
2019-04-14T18:01:58.477Z,23.07
2019-04-14T18:04:26.988Z,22.30
2019-04-14T18:07:04.478Z,27.93
2019-04-14T18:09:38.935Z,28.52
2019-04-14T18:12:13.437Z,27.58
2019-04-14T18:14:44.703Z,24.95
2019-04-14T18:17:28.002Z,26.05
2019-04-14T18:19:56.527Z,25.90
2019-04-14T18:22:22.973Z,23.30
2019-04-14T18:24:49.614Z,23.67
2019-04-14T18:27:37.706Z,23.32
2019-04-14T18:30:06.438Z,25.08
2019-04-14T18:32:34.957Z,20.25
2019-04-14T18:35:03.366Z,27.63
2019-04-14T18:37:35.141Z,27.27
2019-04-14T18:40:06.630Z,27.25
2019-04-14T18:42:49.846Z,28.67
2019-04-14T18:45:18.348Z,28.70
2019-04-14T18:47:52.789Z,30.72
2019-04-14T18:50:21.138Z,28.85
2019-04-14T18:53:07.609Z,28.87
2019-04-14T18:55:38.842Z,33.15
2019-04-14T18:58:15.918Z,36.70
2019-04-14T19:00:44.274Z,37.30
2019-04-14T19:03:10.877Z,37.33
2019-04-14T19:05:37.485Z,33.33
2019-04-14T19:08:04.050Z,31.27
2019-04-14T19:10:30.769Z,32.70
2019-04-14T19:12:59.147Z,34.33
2019-04-14T19:18:19.761Z,36.40
2019-04-14T19:23:27.274Z,37.07
2019-04-14T19:26:13.607Z,37.63
2019-04-14T19:28:40.282Z,36.83
2019-04-14T19:31:07.012Z,36.80
2019-04-14T19:33:33.539Z,35.30
2019-04-14T19:36:00.145Z,36.37
2019-04-14T19:38:26.757Z,37.87
2019-04-14T19:40:53.565Z,37.77
2019-04-14T19:43:23.922Z,37.07
2019-04-14T19:45:48.773Z,34.07
2019-04-14T19:48:15.366Z,32.50
2019-04-14T19:50:42.022Z,31.23
2019-04-14T19:53:08.734Z,29.57
2019-04-14T19:55:37.246Z,28.27
2019-04-14T19:58:03.567Z,25.43
2019-04-14T20:00:30.202Z,25.43
2019-04-14T20:02:56.739Z,23.23
2019-04-14T20:05:23.318Z,24.67
2019-04-14T20:08:09.766Z,23.57
2019-04-14T20:10:36.434Z,23.37
2019-04-14T20:13:03.130Z,23.83
2019-04-14T20:23:32.554Z,26.97
2019-04-14T20:26:15.863Z,28.67
2019-04-14T20:28:47.074Z,28.67
2019-04-14T20:31:18.278Z,27.33
2019-04-14T20:33:44.777Z,28.13
2019-04-14T20:36:11.373Z,28.10
2019-04-14T20:38:38.068Z,25.07
2019-04-14T20:41:04.654Z,24.93
2019-04-14T20:43:53.709Z,23.67
2019-04-14T20:46:20.319Z,23.10
2019-04-14T20:48:46.874Z,21.83
2019-04-14T20:51:17.274Z,21.07
2019-04-14T20:53:43.918Z,20.73
2019-04-14T20:56:10.409Z,19.47
2019-04-14T20:58:36.853Z,20.60
2019-04-14T21:01:05.281Z,20.30
2019-04-14T21:03:44.036Z,20.90
2019-04-14T21:06:25.338Z,21.20
2019-04-14T21:09:12.453Z,19.83
2019-04-14T21:12:00.982Z,19.50
2019-04-14T21:17:36.451Z,19.73
2019-04-14T21:20:14.045Z,14.15
2019-04-14T21:22:46.193Z,17.33
2019-04-14T21:25:17.916Z,17.33
2019-04-14T21:28:01.293Z,14.93
2019-04-14T21:30:32.372Z,14.30
2019-04-14T21:33:15.669Z,13.03
2019-04-14T21:35:50.083Z,12.03
2019-04-14T21:38:27.987Z,10.90
2019-04-14T21:40:56.590Z,11.40
2019-04-14T21:43:23.572Z,12.70
2019-04-14T21:45:50.063Z,11.10
2019-04-14T21:48:16.789Z,13.60
2019-04-14T21:50:43.497Z,11.40
2019-04-14T21:53:09.984Z,12.87
2019-04-14T21:55:36.670Z,12.43
2019-04-14T21:58:22.396Z,11.90
2019-04-14T22:01:00.278Z,11.57
2019-04-14T22:03:32.350Z,9.20
2019-04-14T22:06:08.091Z,8.67
2019-04-14T22:08:42.838Z,7.90
2019-04-14T22:11:14.073Z,7.77
2019-04-14T22:13:46.154Z,6.30
2019-04-14T22:16:17.438Z,6.27
2019-04-14T22:18:48.233Z,5.53
2019-04-14T22:21:15.314Z,6.20
2019-04-14T22:23:42.124Z,5.93
2019-04-14T22:26:09.030Z,6.03
2019-04-14T22:28:35.831Z,5.73
2019-04-14T22:31:02.657Z,5.43
2019-04-14T22:33:29.246Z,5.83
2019-04-14T22:35:56.047Z,5.77
2019-04-14T22:38:22.936Z,6.17
2019-04-14T22:40:49.486Z,6.17
2019-04-14T22:43:16.209Z,5.90
2019-04-14T22:45:43.294Z,6.40
2019-04-14T22:48:10.250Z,6.37
2019-04-14T22:50:36.854Z,6.70
2019-04-14T22:53:03.436Z,7.10
2019-04-14T22:55:30.319Z,8.13
2019-04-14T22:57:56.735Z,8.40
2019-04-14T23:04:04.322Z,7.60
2019-04-14T23:06:35.543Z,6.30
2019-04-14T23:11:56.167Z,6.63
2019-04-14T23:14:40.973Z,6.80
2019-04-14T23:17:09.319Z,6.67
2019-04-14T23:19:46.569Z,7.00
2019-04-14T23:22:14.861Z,7.40
2019-04-14T23:27:21.587Z,7.67
2019-04-14T23:29:48.150Z,7.63
2019-04-14T23:32:14.966Z,7.43
2019-04-14T23:34:41.653Z,7.53
2019-04-14T23:37:08.341Z,6.87
2019-04-14T23:39:34.950Z,6.40
2019-04-14T23:42:01.628Z,5.70
2019-04-14T23:44:28.228Z,5.60
2019-04-14T23:46:54.824Z,3.97
2019-04-14T23:49:21.527Z,4.43
2019-04-14T23:51:48.114Z,4.03
2019-04-14T23:54:15.014Z,4.77
2019-04-14T23:56:41.737Z,4.00
2019-04-14T23:59:08.278Z,4.40
